Terminal Aerodrome Forecast
Issued by NWS Melbourne, FL

Home | Current Version | Previous Version | Text Only | Print | Product List | Glossary On
Versions: 1 2 3 4 5 6 7 8 9 10 11 12 13
000
FTUS42 KMLB 251700
TAFMLB
TAF
KMLB 251734Z 2518/2618 00000KT P6SM SKC
     FM252300 22005KT P6SM SCT100 BKN250
     FM260700 21011KT P6SM VCSH BKN030 OVC050
     FM261500 22018G25KT P6SM VCSH BKN020 OVC040=

USA.gov is the U.S. government's official web portal to all federal, state and local government web resources and services.